Clyde, Iowa
Current Conditions -  °F | °C
As of 5:53 AM on Thursday 23 Oct 2014 (Local Time) from KAMW Reporting Station
Overcast Overcast  
Wind Chill: 11°   Ceiling: 4200
Heat Index: 11°   Visibility: 10mi
Dew Point:   Wind: 7mph
Humidity: 92%   Direction: 150°SSE
Pressure: 30.03"   Gusts: NA
Location:  41.9063°N, 93.2893°W
Report Text: KAMW 231053Z AUTO 15006KT 10SM BKN042 OVC070 11/09 A3003 RMK AO2 RAE26 SLP167 P0001 T01060094
Loading
Personal Weather Stations






























Interactive Weather Map
Tropical Storm Tracking
New forecast layout! Learn more

10-Day Weather Forecast

Advertisements
Track Severe Weather on mobile